Time;durP1;ratioP1;P1;durP2;ratioP2;P2;SDS_P1;SDS_P2;PMS_P1;PMS_P2;Temp;Humidity;BMP_temperature;BMP_pressure;BME280_temperature;BME280_humidity;BME280_pressure;Samples;Min_cycle;Max_cycle;Signal;HPM_P1;HPM_P2
2022/02/09 00:04:23;;;;;;;5.05;2.33;;;;;;;10.25;100.00;101518.47;4932356;28;20039;-69
2022/02/09 00:09:17;;;;;;;6.90;3.17;;;;;;;10.16;100.00;101519.66;4927953;28;20064;-69
2022/02/09 00:12:10;;;;;;;6.93;2.95;;;;;;;10.19;100.00;101513.59;4941381;28;20069;-68
2022/02/09 00:39:14;;;;;;;8.95;3.08;;;;;;;10.27;100.00;101518.13;4947756;28;19918;-70
2022/02/09 01:38:51;;;;;;;10.35;4.03;;;;;;;10.12;100.00;101508.75;4980749;28;20125;-70
2022/02/09 01:42:51;;;;;;;9.05;4.05;;;;;;;10.04;100.00;101515.75;4961995;28;20050;-70
2022/02/09 01:57:46;;;;;;;9.25;3.80;;;;;;;10.04;100.00;101512.28;4930433;28;20107;-70
2022/02/09 02:00:12;;;;;;;7.85;3.67;;;;;;;10.13;100.00;101506.84;4924574;29;20055;-69
2022/02/09 02:02:38;;;;;;;8.20;3.42;;;;;;;10.09;100.00;101509.38;4953333;28;20059;-69
2022/02/09 02:05:03;;;;;;;7.28;3.60;;;;;;;9.97;100.00;101504.72;4938539;29;20488;-69
2022/02/09 02:07:49;;;;;;;7.30;3.60;;;;;;;10.10;100.00;101502.94;4955759;28;20043;-69
2022/02/09 02:10:18;;;;;;;7.68;3.72;;;;;;;10.06;100.00;101501.97;4947995;28;20048;-69
2022/02/09 02:13:14;;;;;;;9.55;4.03;;;;;;;9.96;100.00;101497.00;4924805;29;20040;-68
2022/02/09 02:18:25;;;;;;;8.70;3.88;;;;;;;10.09;100.00;101487.84;4931663;28;20453;-69
2022/02/09 02:21:44;;;;;;;10.40;4.05;;;;;;;10.10;100.00;101485.97;4937302;28;20122;-70
2022/02/09 02:28:49;;;;;;;10.50;4.22;;;;;;;10.16;100.00;101485.47;4943413;28;20110;-70
2022/02/09 02:44:59;;;;;;;5.57;3.00;;;;;;;10.15;100.00;101480.38;4928873;29;20054;-69
2022/02/09 03:11:37;;;;;;;8.45;3.55;;;;;;;9.98;100.00;101468.66;4950130;28;20098;-69
2022/02/09 03:14:13;;;;;;;12.70;3.83;;;;;;;9.95;100.00;101469.28;4938456;28;20081;-69
2022/02/09 03:16:52;;;;;;;8.45;4.07;;;;;;;9.93;100.00;101468.03;4947502;28;20054;-70
2022/02/09 03:22:48;;;;;;;;;;;;;;;9.90;100.00;101456.06;4944773;28;20508;-69
2022/02/09 03:46:16;;;;;;;4.80;2.67;;;;;;;9.90;100.00;101447.19;4946130;28;20037;-69
2022/02/09 03:56:54;;;;;;;8.38;3.15;;;;;;;9.94;100.00;101445.41;4932309;28;20039;-68
2022/02/09 03:59:14;;;;;;;7.32;2.97;;;;;;;9.89;100.00;101440.25;4925843;29;20055;-69
2022/02/09 04:01:41;;;;;;;5.57;3.22;;;;;;;9.88;100.00;101441.34;4956388;28;20035;-70
2022/02/09 04:04:07;;;;;;;7.57;3.22;;;;;;;9.91;100.00;101440.72;4932979;28;20087;-69
2022/02/09 04:06:36;;;;;;;11.98;4.15;;;;;;;9.79;100.00;101454.88;4937721;29;20049;-68
2022/02/09 04:09:06;;;;;;;9.98;4.13;;;;;;;9.87;100.00;101454.00;4942624;28;20051;-69
2022/02/09 04:11:46;;;;;;;7.63;3.40;;;;;;;9.83;100.00;101441.56;4926310;28;20035;-69
2022/02/09 04:14:24;;;;;;;7.85;3.78;;;;;;;9.85;100.00;101447.41;4958703;28;20307;-69
2022/02/09 04:17:41;;;;;;;8.68;3.67;;;;;;;9.90;100.00;101442.59;4945770;28;20035;-69
2022/02/09 04:19:47;;;;;;;7.90;3.33;;;;;;;9.88;100.00;101435.97;4933459;29;20063;-69
2022/02/09 04:36:49;;;;;;;8.30;3.58;;;;;;;9.90;100.00;101428.38;4916800;29;20409;-69
2022/02/09 04:47:21;;;;;;;9.70;3.97;;;;;;;9.78;100.00;101420.22;4909490;29;20501;-68
2022/02/09 04:50:00;;;;;;;7.97;3.38;;;;;;;9.70;100.00;101413.81;4915902;29;20043;-69
2022/02/09 04:57:55;;;;;;;10.50;3.95;;;;;;;9.81;100.00;101411.53;4938035;28;20042;-69
2022/02/09 05:00:45;;;;;;;9.00;3.67;;;;;;;9.69;100.00;101404.19;4944055;28;20046;-69
2022/02/09 05:20:52;;;;;;;9.20;3.80;;;;;;;9.79;100.00;101395.69;4931694;28;20054;-75
2022/02/09 05:26:04;;;;;;;7.15;3.13;;;;;;;9.74;100.00;101403.19;4917323;29;20040;-74
2022/02/09 05:28:08;;;;;;;8.77;3.38;;;;;;;9.75;100.00;101402.09;4927253;29;20573;-74
2022/02/09 05:30:33;;;;;;;10.95;3.75;;;;;;;9.74;100.00;101398.59;4919405;29;20043;-75
2022/02/09 05:32:59;;;;;;;7.60;3.85;;;;;;;9.75;100.00;101394.00;4924751;29;20027;-74
2022/02/09 05:35:26;;;;;;;7.10;3.00;;;;;;;9.71;100.00;101398.47;4910469;29;20039;-74
2022/02/09 05:37:53;;;;;;;7.03;3.30;;;;;;;9.76;100.00;101390.19;4924931;29;20115;-74
2022/02/09 05:40:19;;;;;;;10.48;3.25;;;;;;;9.74;100.00;101389.72;4935638;29;20040;-74
2022/02/09 05:42:44;;;;;;;9.70;3.95;;;;;;;9.72;100.00;101400.81;4921755;29;20039;-74
2022/02/09 05:45:11;;;;;;;11.60;3.38;;;;;;;9.81;100.00;101409.59;4916682;29;20082;-75
2022/02/09 05:50:12;;;;;;;11.85;3.30;;;;;;;9.84;100.00;101395.50;4923906;29;20091;-75
2022/02/09 05:57:47;;;;;;;6.05;2.90;;;;;;;9.80;100.00;101399.19;4921289;29;20036;-75
2022/02/09 06:00:14;;;;;;;9.73;3.70;;;;;;;9.81;100.00;101403.44;4919604;29;20040;-75
2022/02/09 06:02:45;;;;;;;11.82;4.70;;;;;;;9.77;100.00;101399.84;4926331;29;20046;-74
2022/02/09 06:05:16;;;;;;;6.72;3.58;;;;;;;9.76;100.00;101401.75;4920069;29;20039;-74
2022/02/09 06:07:43;;;;;;;9.27;4.22;;;;;;;9.70;100.00;101408.44;4925718;29;20031;-75
2022/02/09 06:10:15;;;;;;;10.82;3.70;;;;;;;9.66;100.00;101402.16;4929034;29;20142;-75
2022/02/09 06:12:53;;;;;;;13.38;4.07;;;;;;;9.66;100.00;101401.34;4925084;29;20396;-74
2022/02/09 06:15:45;;;;;;;8.75;3.92;;;;;;;9.70;100.00;101399.56;4920728;29;20043;-75
2022/02/09 06:20:48;;;;;;;8.15;3.58;;;;;;;9.64;100.00;101392.84;4924484;29;20419;-75
2022/02/09 06:23:14;;;;;;;7.10;3.15;;;;;;;9.66;100.00;101391.38;4919256;29;20045;-76
2022/02/09 06:25:39;;;;;;;9.35;3.88;;;;;;;9.66;100.00;101395.97;4917670;29;21197;-76
2022/02/09 06:28:05;;;;;;;7.88;3.47;;;;;;;9.70;100.00;101399.56;4924401;29;20095;-76
2022/02/09 06:30:30;;;;;;;9.07;3.10;;;;;;;9.59;100.00;101393.03;4920126;29;20058;-74
2022/02/09 06:32:56;;;;;;;9.77;3.33;;;;;;;9.56;100.00;101389.09;4922742;29;20415;-75
2022/02/09 06:35:21;;;;;;;9.10;3.60;;;;;;;9.61;100.00;101385.44;4921938;29;20044;-75
2022/02/09 06:37:48;;;;;;;9.27;3.45;;;;;;;9.60;100.00;101391.94;4925684;29;20061;-75
2022/02/09 06:40:17;;;;;;;10.15;3.72;;;;;;;9.57;100.00;101393.38;4921105;29;20043;-74
2022/02/09 06:42:42;;;;;;;12.23;3.90;;;;;;;9.44;100.00;101388.28;4924570;29;20776;-75
2022/02/09 06:45:15;;;;;;;8.13;3.63;;;;;;;9.50;100.00;101395.03;4926694;29;20043;-75
2022/02/09 06:47:41;;;;;;;10.07;3.63;;;;;;;9.43;100.00;101390.16;4919224;29;20063;-75
2022/02/09 06:50:12;;;;;;;7.65;3.15;;;;;;;9.54;100.00;101388.63;4919521;29;20067;-74
2022/02/09 06:52:40;;;;;;;7.75;3.33;;;;;;;9.62;100.00;101385.09;4925440;29;20436;-75
2022/02/09 07:00:19;;;;;;;8.55;3.33;;;;;;;9.63;100.00;101385.88;4923508;29;20071;-75
2022/02/09 07:02:45;;;;;;;8.73;4.00;;;;;;;9.59;100.00;101377.69;4925317;29;20051;-75
2022/02/09 07:05:12;;;;;;;14.57;4.13;;;;;;;9.60;100.00;101378.50;4923876;29;20059;-75
2022/02/09 07:07:38;;;;;;;12.32;3.45;;;;;;;9.57;100.00;101377.25;4924713;29;20043;-74
2022/02/09 07:10:05;;;;;;;8.85;3.10;;;;;;;9.54;100.00;101387.88;4926953;29;20539;-75
2022/02/09 07:12:31;;;;;;;8.02;4.30;;;;;;;9.54;100.00;101382.50;4929391;28;20608;-74
2022/02/09 07:14:57;;;;;;;8.07;3.55;;;;;;;9.65;100.00;101389.03;4923253;29;20115;-74
2022/02/09 07:17:23;;;;;;;8.85;3.80;;;;;;;9.70;100.00;101381.53;4928431;28;20032;-75
2022/02/09 07:20:09;;;;;;;8.65;3.72;;;;;;;9.68;100.00;101383.78;4917256;29;20452;-74
2022/02/09 07:22:37;;;;;;;8.10;2.85;;;;;;;9.68;100.00;101394.53;4937313;29;20071;-75
2022/02/09 07:25:14;;;;;;;8.13;2.72;;;;;;;9.73;100.00;101402.41;4927264;29;20082;-75
2022/02/09 07:30:07;;;;;;;9.55;3.72;;;;;;;9.62;100.00;101379.72;4925488;29;20489;-74
2022/02/09 07:32:33;;;;;;;8.25;3.67;;;;;;;9.61;100.00;101386.22;4919326;29;20047;-74
2022/02/09 07:34:58;;;;;;;9.48;3.45;;;;;;;9.58;100.00;101383.41;4924376;29;20107;-74
2022/02/09 07:37:23;;;;;;;8.43;3.00;;;;;;;9.53;100.00;101387.06;4927632;29;20078;-74
2022/02/09 07:39:49;;;;;;;12.27;4.78;;;;;;;9.53;100.00;101370.94;4920468;28;20063;-74
2022/02/09 07:42:22;;;;;;;10.10;3.35;;;;;;;9.53;100.00;101370.94;4921025;29;20055;-73
2022/02/09 07:52:49;;;;;;;9.15;3.70;;;;;;;9.53;100.00;101375.53;4930049;29;20042;-75
2022/02/09 07:55:14;;;;;;;8.18;3.55;;;;;;;9.53;100.00;101368.25;4944854;28;20138;-74
2022/02/09 07:57:40;;;;;;;9.55;3.78;;;;;;;9.57;100.00;101377.25;4929009;28;20035;-75
2022/02/09 08:00:08;;;;;;;13.18;3.63;;;;;;;9.63;100.00;101375.94;4923682;29;20040;-75
2022/02/09 08:02:41;;;;;;;7.35;3.00;;;;;;;9.69;100.00;101369.22;4927699;29;20066;-74
2022/02/09 08:05:07;;;;;;;10.40;4.22;;;;;;;9.64;100.00;101363.28;4935399;29;20074;-74
2022/02/09 08:07:32;;;;;;;8.15;3.85;;;;;;;9.62;100.00;101368.97;4925277;28;20050;-74
2022/02/09 08:09:59;;;;;;;12.45;3.35;;;;;;;9.54;100.00;101361.00;4918373;29;20036;-74
2022/02/09 08:20:29;;;;;;;7.90;3.80;;;;;;;9.63;100.00;101361.69;4917514;29;20102;-75
2022/02/09 08:33:21;;;;;;;8.35;2.55;;;;;;;9.74;100.00;101357.47;4920426;29;20063;-74
2022/02/09 08:35:49;;;;;;;6.78;3.13;;;;;;;9.76;100.00;101372.16;4925805;29;20027;-74
2022/02/09 08:38:17;;;;;;;7.70;3.20;;;;;;;9.79;100.00;101366.09;4924749;28;20421;-74
2022/02/09 08:40:45;;;;;;;7.10;3.08;;;;;;;9.98;100.00;101365.63;4920260;29;20040;-74
2022/02/09 08:43:11;;;;;;;11.95;3.47;;;;;;;9.80;100.00;101364.22;4925725;29;20031;-74
2022/02/09 08:45:44;;;;;;;9.05;3.78;;;;;;;9.76;100.00;101360.59;4919464;28;20039;-74
2022/02/09 08:48:10;;;;;;;7.28;3.00;;;;;;;9.66;100.00;101363.69;4925763;29;20047;-74
2022/02/09 08:50:36;;;;;;;6.72;2.75;;;;;;;9.70;100.00;101372.69;4923402;29;20564;-75
2022/02/09 08:53:04;;;;;;;6.55;3.03;;;;;;;9.78;100.00;101355.69;4919711;29;20055;-74
2022/02/09 08:55:30;;;;;;;5.50;2.72;;;;;;;9.84;100.00;101351.66;4911524;29;20047;-74
2022/02/09 08:57:55;;;;;;;9.00;2.90;;;;;;;9.91;100.00;101352.69;4916422;29;20035;-75
2022/02/09 09:00:27;;;;;;;6.60;2.53;;;;;;;9.91;100.00;101343.88;4921447;29;20072;-74
2022/02/09 09:03:16;;;;;;;6.78;3.00;;;;;;;9.97;100.00;101354.06;4922051;29;20043;-74
2022/02/09 09:05:50;;;;;;;8.88;3.10;;;;;;;9.93;100.00;101344.28;4921195;29;20047;-74
2022/02/09 10:02:47;;;;;;;6.07;3.67;;;;;;;10.47;100.00;101336.88;4920924;29;20040;-74
2022/02/09 10:33:00;;;;;;;7.70;3.08;;;;;;;10.36;100.00;101347.31;4915612;29;20035;-72
2022/02/09 10:35:33;;;;;;;4.55;2.78;;;;;;;10.40;100.00;101342.81;4922017;29;20400;-74
2022/02/09 10:38:18;;;;;;;6.32;3.33;;;;;;;10.36;100.00;101341.91;4917358;29;20040;-73
2022/02/09 10:40:48;;;;;;;6.57;3.20;;;;;;;10.49;100.00;101342.72;4917436;29;20044;-73
2022/02/09 10:43:30;;;;;;;7.83;3.03;;;;;;;10.57;100.00;101349.88;4920572;29;20079;-73
2022/02/09 10:46:13;;;;;;;7.13;3.25;;;;;;;10.56;100.00;101348.31;4929329;29;20098;-73
2022/02/09 10:49:02;;;;;;;6.82;2.95;;;;;;;10.56;100.00;101348.31;4927328;28;20064;-73
2022/02/09 10:51:36;;;;;;;6.57;2.92;;;;;;;10.56;100.00;101359.88;4896591;29;20052;-75
2022/02/09 10:54:11;;;;;;;7.30;2.97;;;;;;;10.59;100.00;101347.63;4902544;29;20425;-73
2022/02/09 10:56:39;;;;;;;8.38;3.20;;;;;;;10.61;100.00;101343.50;4901554;29;20531;-74
2022/02/09 10:59:08;;;;;;;6.95;3.10;;;;;;;10.64;100.00;101336.66;4900134;29;20099;-74
2022/02/09 11:01:35;;;;;;;5.45;2.80;;;;;;;10.65;100.00;101336.31;4900439;29;20107;-73
2022/02/09 11:04:01;;;;;;;5.45;2.92;;;;;;;10.55;100.00;101338.69;4891474;29;20512;-73
2022/02/09 11:06:31;;;;;;;4.55;2.63;;;;;;;10.55;100.00;101338.69;4898947;29;20415;-74
2022/02/09 11:08:56;;;;;;;6.18;2.60;;;;;;;10.51;100.00;101337.78;4899840;29;20035;-73
2022/02/09 11:11:22;;;;;;;5.72;3.10;;;;;;;10.52;100.00;101340.13;4905296;29;20047;-75
2022/02/09 11:13:49;;;;;;;7.35;2.97;;;;;;;10.41;100.00;101328.25;4908059;29;20031;-72
2022/02/09 11:16:17;;;;;;;3.80;2.25;;;;;;;10.47;100.00;101336.88;4910460;29;20059;-73
2022/02/09 11:18:47;;;;;;;2.97;2.00;;;;;;;10.51;100.00;101335.09;4907464;29;20036;-72
2022/02/09 11:21:14;;;;;;;3.38;2.13;;;;;;;10.55;100.00;101326.00;4907554;29;20071;-74
2022/02/09 11:29:37;;;;;;;5.43;2.25;;;;;;;10.45;100.00;101318.34;4926208;29;20110;-73
2022/02/09 11:32:11;;;;;;;3.63;2.50;;;;;;;10.49;100.00;101335.41;4940174;29;20066;-73
2022/02/09 11:34:48;;;;;;;3.42;1.80;;;;;;;10.62;100.00;101326.22;4935486;28;20400;-73
2022/02/09 11:37:22;;;;;;;4.72;2.15;;;;;;;10.50;100.00;101320.03;4933617;28;20114;-74
2022/02/09 11:39:51;;;;;;;2.53;1.65;;;;;;;10.47;100.00;101334.97;4933347;28;20051;-75
2022/02/09 11:42:45;;;;;;;6.28;1.83;;;;;;;10.47;100.00;101334.97;4928806;29;20396;-74
2022/02/09 11:46:02;;;;;;;3.35;1.90;;;;;;;10.55;100.00;101330.59;4939219;29;20046;-73
2022/02/09 11:52:25;;;;;;;3.50;1.63;;;;;;;10.39;100.00;101321.63;4921626;29;20052;-73
2022/02/09 12:12:11;;;;;;;3.15;1.50;;;;;;;10.66;100.00;101335.22;4921478;29;20114;-74
2022/02/09 12:20:00;;;;;;;3.13;1.63;;;;;;;10.76;100.00;101310.47;4921713;29;20049;-74
2022/02/09 12:22:29;;;;;;;2.88;1.60;;;;;;;10.67;100.00;101317.13;4917458;29;20047;-75
2022/02/09 12:24:56;;;;;;;2.67;1.40;;;;;;;10.78;100.00;101305.53;4916668;29;20408;-72
2022/02/09 12:27:22;;;;;;;3.13;1.27;;;;;;;10.56;100.00;101306.03;4925484;29;20036;-74
2022/02/09 12:29:57;;;;;;;2.53;1.35;;;;;;;10.66;100.00;101310.16;4924511;29;20488;-75
2022/02/09 12:32:26;;;;;;;1.90;1.30;;;;;;;10.65;100.00;101295.13;4925465;29;20063;-73
2022/02/09 12:34:55;;;;;;;2.60;1.38;;;;;;;10.71;100.00;101302.63;4926386;29;20120;-72
2022/02/09 12:37:20;;;;;;;3.30;1.58;;;;;;;10.62;100.00;101312.75;4925961;29;20039;-73
2022/02/09 12:39:51;;;;;;;3.47;1.60;;;;;;;10.61;100.00;101311.19;4923649;29;20031;-74
2022/02/09 12:42:21;;;;;;;2.30;1.52;;;;;;;10.73;100.00;101311.16;4934485;28;20055;-73
2022/02/09 12:44:58;;;;;;;2.33;1.35;;;;;;;10.76;100.00;101305.09;4917027;29;20097;-75
2022/02/09 12:47:31;;;;;;;1.92;1.42;;;;;;;10.75;100.00;101297.34;4918249;29;20047;-73
2022/02/09 12:49:57;;;;;;;1.75;1.17;;;;;;;10.70;100.00;101300.28;4911304;29;20036;-76
2022/02/09 12:52:30;;;;;;;2.78;1.23;;;;;;;10.66;100.00;101307.47;4922956;29;20050;-74
2022/02/09 12:55:13;;;;;;;2.05;1.20;;;;;;;10.76;100.00;101304.31;4921009;29;20038;-74
2022/02/09 12:57:54;;;;;;;3.10;1.23;;;;;;;10.76;100.00;101315.09;4922398;29;20551;-73
2022/02/09 13:00:26;;;;;;;2.15;1.45;;;;;;;10.70;100.00;101311.06;4915043;29;20071;-77
2022/02/09 13:02:54;;;;;;;2.03;1.10;;;;;;;10.72;100.00;101298.03;4920619;29;20912;-73
2022/02/09 13:05:20;;;;;;;3.33;2.00;;;;;;;10.71;100.00;101316.09;4913308;29;20504;-73
2022/02/09 13:07:53;;;;;;;2.53;1.55;;;;;;;10.68;100.00;101292.53;4916507;29;20036;-74
2022/02/09 13:10:25;;;;;;;3.95;1.58;;;;;;;10.66;100.00;101294.00;4917758;29;20491;-74
2022/02/09 13:12:51;;;;;;;1.38;1.27;;;;;;;10.62;100.00;101311.97;4913900;29;20069;-73
2022/02/09 13:15:24;;;;;;;1.88;1.60;;;;;;;10.61;100.00;101299.59;4919043;29;20043;-74
2022/02/09 13:18:29;;;;;;;2.75;1.60;;;;;;;10.52;100.00;101302.44;4916717;29;20038;-76
2022/02/09 13:26:18;;;;;;;2.20;1.20;;;;;;;10.70;100.00;101287.59;4917854;29;20468;-73
2022/02/09 13:52:17;;;;;;;2.78;1.25;;;;;;;10.55;100.00;101293.69;4927120;29;20110;-73
2022/02/09 14:02:53;;;;;;;2.35;0.93;;;;;;;10.52;100.00;101293.56;4925179;29;20162;-74
2022/02/09 14:04:03;;;;;;;1.33;0.77;;;;;;;10.52;100.00;101304.34;4920792;29;20079;-73
2022/02/09 14:11:50;;;;;;;0.98;0.90;;;;;;;10.67;100.00;101315.22;4922103;29;20035;-73
2022/02/09 14:57:12;;;;;;;1.73;1.48;;;;;;;10.68;100.00;101313.31;4920797;29;20031;-73
2022/02/09 15:02:20;;;;;;;1.48;1.10;;;;;;;10.51;100.00;101322.41;4920856;29;20381;-74
2022/02/09 15:07:38;;;;;;;1.83;1.30;;;;;;;10.44;100.00;101313.31;4920117;29;20039;-73
2022/02/09 15:10:09;;;;;;;2.20;1.13;;;;;;;10.43;100.00;101315.22;4921874;29;20040;-73
2022/02/09 15:15:27;;;;;;;2.70;1.67;;;;;;;10.52;100.00;101321.28;4923610;29;20036;-73
2022/02/09 15:23:04;;;;;;;2.30;1.15;;;;;;;10.42;100.00;101320.94;4920454;29;20036;-73
2022/02/09 15:25:33;;;;;;;1.45;1.15;;;;;;;10.39;100.00;101324.31;4920386;29;20523;-73
2022/02/09 15:27:59;;;;;;;2.53;1.27;;;;;;;10.30;100.00;101310.97;4919237;29;20039;-72
2022/02/09 15:30:33;;;;;;;2.60;1.63;;;;;;;10.23;100.00;101316.13;4923261;29;20035;-73
2022/02/09 15:33:00;;;;;;;2.15;1.65;;;;;;;10.26;100.00;101323.50;4929001;29;20037;-73
2022/02/09 15:35:33;;;;;;;3.95;2.38;;;;;;;10.30;100.00;101326.34;4921928;28;20043;-72
2022/02/09 15:38:09;;;;;;;2.78;1.90;;;;;;;10.26;100.00;101322.75;4923077;29;20039;-73
2022/02/09 15:40:48;;;;;;;2.00;1.60;;;;;;;10.29;100.00;101328.25;4923066;29;20063;-73
2022/02/09 16:23:46;;;;;;;2.30;1.45;;;;;;;10.32;100.00;101340.22;4923094;29;20539;-73
2022/02/09 16:44:37;;;;;;;1.17;0.70;;;;;;;10.02;100.00;101361.16;4916304;29;20047;-74
2022/02/09 16:47:05;;;;;;;0.65;0.63;;;;;;;9.87;100.00;101364.47;4927100;29;20040;-73
2022/02/09 16:49:38;;;;;;;0.80;0.60;;;;;;;9.99;100.00;101377.94;4925662;29;20122;-73
2022/02/09 16:52:14;;;;;;;2.58;0.50;;;;;;;10.06;100.00;101375.50;4924941;29;20071;-73
2022/02/09 17:08:23;;;;;;;1.00;0.75;;;;;;;10.16;100.00;101369.72;4925868;29;20170;-73
2022/02/09 17:21:15;;;;;;;;;;;;;;;9.97;100.00;101404.38;4928884;28;20078;-74
2022/02/09 17:23:41;;;;;;;0.95;0.70;;;;;;;9.96;100.00;101400.94;4921527;29;19966;-74
2022/02/09 17:26:08;;;;;;;3.67;1.08;;;;;;;9.96;100.00;101405.53;4921906;29;20046;-73
2022/02/09 17:28:34;;;;;;;2.45;0.60;;;;;;;9.85;100.00;101410.50;4923304;29;20035;-72
2022/02/09 17:31:07;;;;;;;2.58;1.25;;;;;;;9.90;100.00;101414.91;4918523;29;20087;-73
2022/02/09 17:33:48;;;;;;;1.48;1.02;;;;;;;9.83;100.00;101407.38;4923820;29;20035;-73
2022/02/09 17:36:26;;;;;;;0.85;0.85;;;;;;;9.86;100.00;101411.31;4924889;29;20489;-73
2022/02/09 18:00:16;;;;;;;1.70;1.05;;;;;;;9.82;100.00;101410.38;4927472;29;20155;-73
2022/02/09 18:02:47;;;;;;;3.53;0.85;;;;;;;9.76;100.00;101414.41;4928199;29;20183;-74
2022/02/09 18:05:42;;;;;;;;;;;;;;;9.78;100.00;101414.84;4926967;29;20043;-73
2022/02/09 18:08:04;;;;;;;2.35;1.00;;;;;;;9.81;100.00;101411.53;4927555;28;19921;-74
2022/02/09 18:10:47;;;;;;;7.20;1.60;;;;;;;9.75;100.00;101412.84;4929431;29;20576;-72
2022/02/09 18:13:27;;;;;;;3.75;1.35;;;;;;;9.77;100.00;101418.69;4926525;29;20069;-73
2022/02/09 18:16:15;;;;;;;3.80;1.03;;;;;;;9.74;100.00;101413.94;4926465;29;20047;-73
2022/02/09 18:29:44;;;;;;;2.70;1.85;;;;;;;9.73;100.00;101417.75;4927526;29;20027;-73
2022/02/09 18:32:26;;;;;;;4.43;1.08;;;;;;;9.70;100.00;101410.34;4924390;29;20098;-73
2022/02/09 18:45:40;;;;;;;2.60;1.40;;;;;;;9.56;100.00;101410.59;4913098;29;20297;-73
2022/02/09 18:59:49;;;;;;;2.22;1.35;;;;;;;9.39;100.00;101399.22;4925625;29;20043;-73
2022/02/09 19:05:18;;;;;;;4.18;1.38;;;;;;;9.30;100.00;101406.53;4919791;29;20039;-74
2022/02/09 19:16:42;;;;;;;6.70;1.77;;;;;;;9.29;100.00;101413.81;4923244;29;20086;-73
2022/02/09 19:26:19;;;;;;;4.40;1.95;;;;;;;9.27;100.00;101417.97;4926984;29;20032;-73
2022/02/09 19:48:19;;;;;;;5.65;2.28;;;;;;;9.33;100.00;101419.34;4923960;29;20028;-74
2022/02/09 19:53:24;;;;;;;5.53;2.53;;;;;;;9.32;100.00;101423.13;4922806;29;20058;-73
2022/02/09 19:55:58;;;;;;;4.30;1.83;;;;;;;9.35;100.00;101423.25;4925750;29;20067;-73
2022/02/09 19:58:34;;;;;;;4.90;2.03;;;;;;;9.28;100.00;101422.22;4922013;29;20047;-73
2022/02/09 20:01:00;;;;;;;3.90;2.15;;;;;;;9.28;100.00;101422.22;4921326;29;20119;-73
2022/02/09 20:03:25;;;;;;;3.97;2.17;;;;;;;9.29;100.00;101421.13;4921169;29;20119;-73
2022/02/09 20:05:51;;;;;;;3.28;1.88;;;;;;;9.24;100.00;101421.28;4916447;29;20066;-73
2022/02/09 20:08:19;;;;;;;2.10;1.58;;;;;;;9.32;100.00;101428.50;4917472;29;20046;-73
2022/02/09 20:10:45;;;;;;;5.50;2.30;;;;;;;9.37;100.00;101417.59;4919272;29;20091;-73
2022/02/09 20:13:10;;;;;;;3.08;1.83;;;;;;;9.38;100.00;101422.63;4921795;29;20110;-73
2022/02/09 20:15:36;;;;;;;6.10;2.45;;;;;;;9.37;100.00;101425.66;4919853;29;20070;-72
2022/02/09 20:18:01;;;;;;;7.53;2.97;;;;;;;9.42;100.00;101437.00;4917254;29;20051;-73
2022/02/09 20:20:29;;;;;;;6.15;2.00;;;;;;;9.42;100.00;101428.91;4916617;29;20122;-73
2022/02/09 20:22:56;;;;;;;6.05;2.05;;;;;;;9.40;100.00;101433.03;4932812;29;20934;-73
2022/02/09 20:25:23;;;;;;;3.72;2.80;;;;;;;9.48;100.00;101419.56;4917373;29;20130;-73
2022/02/09 20:27:52;;;;;;;3.70;2.13;;;;;;;9.48;100.00;101410.69;4914379;29;20051;-73
2022/02/09 20:30:21;;;;;;;12.38;3.17;;;;;;;9.48;100.00;101421.44;4914241;29;20440;-72
2022/02/09 20:33:01;;;;;;;4.47;1.90;;;;;;;9.35;100.00;101433.25;4918680;29;20036;-73
2022/02/09 20:35:26;;;;;;;4.05;2.08;;;;;;;9.30;100.00;101430.75;4921026;29;20027;-73
2022/02/09 20:37:54;;;;;;;3.55;1.70;;;;;;;9.32;100.00;101423.13;4924599;29;20066;-73
2022/02/09 20:40:25;;;;;;;4.20;1.75;;;;;;;9.39;100.00;101428.78;4925067;29;20074;-73
2022/02/09 20:42:57;;;;;;;6.03;1.83;;;;;;;9.34;100.00;101439.72;4925249;29;20115;-73
2022/02/09 20:45:35;;;;;;;5.07;1.83;;;;;;;9.35;100.00;101435.94;4914268;29;20044;-72
2022/02/09 20:48:07;;;;;;;3.22;1.88;;;;;;;9.27;100.00;101440.22;4935406;29;20517;-72
2022/02/09 20:50:34;;;;;;;9.05;2.17;;;;;;;9.25;100.00;101429.03;4909248;29;20040;-73
2022/02/09 20:53:00;;;;;;;5.97;1.85;;;;;;;9.32;100.00;101436.56;4912797;29;20031;-73
2022/02/09 20:55:27;;;;;;;5.18;2.20;;;;;;;9.32;100.00;101445.44;4924220;29;20044;-74
2022/02/09 20:57:53;;;;;;;11.52;2.30;;;;;;;9.26;100.00;101445.94;4925299;29;20040;-73
2022/02/09 21:00:38;;;;;;;4.32;1.67;;;;;;;9.31;100.00;101448.44;4918436;29;20038;-73
2022/02/09 21:08:11;;;;;;;2.95;1.95;;;;;;;9.13;100.00;101466.56;4912216;29;20050;-73
2022/02/09 21:13:13;;;;;;;4.03;1.98;;;;;;;9.16;100.00;101449.78;4915929;29;20068;-72
2022/02/09 21:30:06;;;;;;;2.53;1.45;;;;;;;9.14;100.00;101440.50;4923109;29;20035;-74
2022/02/09 21:54:59;;;;;;;6.38;1.70;;;;;;;9.08;100.00;101435.28;4924734;29;20126;-73
2022/02/09 21:57:40;;;;;;;4.05;1.27;;;;;;;9.06;100.00;101431.34;4925494;29;20044;-74
2022/02/09 22:16:46;;;;;;;4.63;1.52;;;;;;;8.93;100.00;101425.13;4921555;29;20059;-74
2022/02/09 22:32:02;;;;;;;4.82;1.70;;;;;;;8.74;100.00;101414.00;4921277;29;20050;-74
2022/02/09 22:56:35;;;;;;;3.70;1.67;;;;;;;8.65;100.00;101405.19;4927031;29;20432;-73
2022/02/09 22:59:04;;;;;;;6.80;2.15;;;;;;;8.56;100.00;101400.97;4929514;29;20035;-73
2022/02/09 23:14:37;;;;;;;6.45;1.33;;;;;;;8.45;100.00;101387.13;4926754;29;20039;-73
